createdAt,value
2018-07-03T00:00:10.748Z,13.41
2018-07-03T00:01:10.940Z,13.38
2018-07-03T00:02:11.149Z,13.39
2018-07-03T00:03:11.339Z,13.29
2018-07-03T00:04:11.529Z,13.33
2018-07-03T00:05:11.727Z,13.23
2018-07-03T00:06:11.934Z,13.36
2018-07-03T00:07:12.131Z,13.19
2018-07-03T00:08:12.326Z,13.14
2018-07-03T00:09:12.513Z,13.15
2018-07-03T00:10:12.710Z,13.12
2018-07-03T00:11:12.902Z,13.23
2018-07-03T00:12:13.105Z,13.14
2018-07-03T00:13:13.288Z,13.14
2018-07-03T00:14:13.474Z,13.22
2018-07-03T00:15:13.684Z,13.19
2018-07-03T00:16:13.881Z,13.15
2018-07-03T00:17:14.073Z,13.12
2018-07-03T00:18:14.282Z,13.10
2018-07-03T00:19:14.488Z,13.22
2018-07-03T00:20:14.683Z,13.19
2018-07-03T00:21:14.954Z,13.15
2018-07-03T00:22:15.014Z,13.11
2018-07-03T00:23:15.210Z,12.97
2018-07-03T00:24:15.407Z,13.08
2018-07-03T00:25:15.614Z,13.01
2018-07-03T00:26:15.821Z,12.93
2018-07-03T00:27:16.015Z,12.93
2018-07-03T00:28:16.214Z,12.85
2018-07-03T00:29:16.416Z,12.77
2018-07-03T00:30:16.610Z,12.82
2018-07-03T00:31:16.825Z,12.87
2018-07-03T00:32:17.098Z,12.86
2018-07-03T00:33:17.173Z,12.78
2018-07-03T00:34:17.366Z,12.70
2018-07-03T00:35:17.574Z,12.68
2018-07-03T00:36:17.754Z,12.70
2018-07-03T00:37:17.954Z,12.65
2018-07-03T00:38:18.134Z,12.67
2018-07-03T00:39:18.320Z,12.67
2018-07-03T00:40:18.510Z,12.67
2018-07-03T00:41:18.694Z,12.71
2018-07-03T00:42:18.878Z,12.68
2018-07-03T00:43:19.087Z,12.68
2018-07-03T00:44:19.272Z,12.57
2018-07-03T00:45:19.464Z,12.50
2018-07-03T00:46:19.690Z,12.57
2018-07-03T00:47:19.882Z,12.52
2018-07-03T00:48:20.086Z,12.42
2018-07-03T00:49:20.278Z,12.42
2018-07-03T00:50:20.461Z,12.45
2018-07-03T00:51:20.650Z,12.32
2018-07-03T00:52:20.845Z,12.17
2018-07-03T00:53:21.130Z,12.24
2018-07-03T00:54:21.216Z,12.27
2018-07-03T00:55:21.403Z,12.23
2018-07-03T00:56:21.599Z,12.29
2018-07-03T00:57:21.810Z,12.23
2018-07-03T00:58:22.027Z,12.24
2018-07-03T00:59:22.234Z,12.12
2018-07-03T01:00:22.422Z,12.21
2018-07-03T01:01:22.616Z,12.14
2018-07-03T01:02:22.810Z,12.20
2018-07-03T01:03:23.021Z,12.07
2018-07-03T01:04:23.236Z,12.20
2018-07-03T01:05:23.436Z,12.19
2018-07-03T01:07:55.553Z,11.98
2018-07-03T01:08:55.728Z,11.90
2018-07-03T01:09:55.916Z,11.83
2018-07-03T01:10:56.135Z,11.80
2018-07-03T01:11:56.348Z,11.72
2018-07-03T01:12:56.538Z,11.75
2018-07-03T01:13:56.755Z,11.69
2018-07-03T01:14:56.945Z,11.58
2018-07-03T01:15:57.146Z,11.65
2018-07-03T01:16:57.339Z,11.65
2018-07-03T01:17:57.548Z,11.54
2018-07-03T01:18:57.765Z,11.49
2018-07-03T01:19:57.982Z,11.49
2018-07-03T01:20:58.171Z,11.61
2018-07-03T01:21:58.365Z,11.52
2018-07-03T01:22:58.558Z,11.54
2018-07-03T01:23:58.767Z,11.29
2018-07-03T01:24:59.068Z,11.37
2018-07-03T01:25:59.138Z,11.25
2018-07-03T01:26:59.343Z,11.36
2018-07-03T01:27:59.529Z,11.28
2018-07-03T01:28:59.718Z,11.25
2018-07-03T01:29:59.920Z,11.32
2018-07-03T01:31:00.115Z,11.32
2018-07-03T01:32:00.313Z,11.29
2018-07-03T01:33:00.504Z,11.27
2018-07-03T01:34:00.702Z,11.32
2018-07-03T01:35:00.913Z,11.25
2018-07-03T01:36:01.113Z,11.42
2018-07-03T01:37:01.329Z,11.28
2018-07-03T01:38:01.538Z,11.25
2018-07-03T01:39:01.742Z,11.27
2018-07-03T01:40:01.969Z,11.27
2018-07-03T01:41:02.171Z,11.29
2018-07-03T01:42:02.358Z,11.32
2018-07-03T01:43:02.555Z,11.29
2018-07-03T01:44:02.754Z,11.40
2018-07-03T01:45:02.957Z,11.36
2018-07-03T01:46:03.165Z,11.39
2018-07-03T01:47:03.348Z,11.46
2018-07-03T01:48:03.537Z,11.40
2018-07-03T01:49:03.718Z,11.36
2018-07-03T01:50:03.904Z,11.43
2018-07-03T01:51:04.110Z,11.37
2018-07-03T01:52:04.296Z,11.39
2018-07-03T01:53:04.493Z,11.36
2018-07-03T01:54:04.684Z,11.32
2018-07-03T01:55:04.895Z,11.28
2018-07-03T01:56:05.080Z,11.29
2018-07-03T01:57:05.361Z,11.36
2018-07-03T01:58:05.458Z,11.32
2018-07-03T01:59:05.648Z,11.29
2018-07-03T02:00:05.843Z,11.40
2018-07-03T02:01:06.057Z,11.33
2018-07-03T02:02:06.255Z,11.22
2018-07-03T02:03:06.458Z,11.33
2018-07-03T02:04:06.643Z,11.33
2018-07-03T02:05:06.827Z,11.40
2018-07-03T02:06:07.015Z,11.28
2018-07-03T02:08:39.139Z,11.21
2018-07-03T02:09:39.334Z,11.25
2018-07-03T02:10:39.540Z,11.28
2018-07-03T02:11:39.750Z,11.27
2018-07-03T02:12:39.931Z,11.22
2018-07-03T02:13:40.125Z,11.22
2018-07-03T02:14:40.307Z,11.24
2018-07-03T02:15:40.501Z,11.04
2018-07-03T02:18:12.611Z,11.06
2018-07-03T02:19:12.782Z,11.04
2018-07-03T02:20:12.969Z,11.02
2018-07-03T02:21:13.192Z,10.94
2018-07-03T02:22:13.374Z,10.97
2018-07-03T02:23:13.603Z,11.02
2018-07-03T02:24:13.737Z,10.78
2018-07-03T02:25:13.937Z,10.76
2018-07-03T02:26:14.128Z,10.51
2018-07-03T02:27:14.340Z,10.42
2018-07-03T02:28:14.520Z,10.47
2018-07-03T02:29:14.720Z,10.52
2018-07-03T02:30:14.898Z,10.59
2018-07-03T02:31:15.084Z,10.52
2018-07-03T02:32:15.272Z,10.56
2018-07-03T02:33:15.468Z,10.56
2018-07-03T02:34:15.655Z,10.52
2018-07-03T02:35:15.847Z,10.53
2018-07-03T02:36:16.064Z,10.55
2018-07-03T02:37:16.262Z,10.56
2018-07-03T02:38:16.468Z,10.34
2018-07-03T02:39:16.790Z,10.38
2018-07-03T02:40:16.852Z,10.40
2018-07-03T02:41:17.054Z,10.36
2018-07-03T02:42:17.237Z,10.27
2018-07-03T02:43:17.434Z,10.32
2018-07-03T02:44:17.639Z,10.17
2018-07-03T02:45:17.823Z,10.12
2018-07-03T02:46:18.012Z,10.14
2018-07-03T02:47:18.200Z,10.09
2018-07-03T02:48:18.388Z,10.18
2018-07-03T02:49:18.594Z,10.20
2018-07-03T02:51:50.973Z,10.26
2018-07-03T02:52:50.895Z,10.14
2018-07-03T02:53:51.088Z,10.22
2018-07-03T02:54:51.285Z,10.27
2018-07-03T02:55:51.519Z,10.18
2018-07-03T02:56:51.694Z,10.07
2018-07-03T02:57:51.899Z,10.04
2018-07-03T02:58:52.083Z,10.07
2018-07-03T02:59:52.273Z,10.04
2018-07-03T03:02:24.087Z,10.04
2018-07-03T03:03:24.256Z,9.96
2018-07-03T03:04:24.461Z,10.01
2018-07-03T03:05:24.669Z,10.12
2018-07-03T03:06:24.855Z,10.07
2018-07-03T03:07:25.038Z,10.08
2018-07-03T03:08:25.229Z,10.05
2018-07-03T03:09:25.433Z,10.02
2018-07-03T03:10:25.644Z,10.04
2018-07-03T03:11:25.832Z,10.11
2018-07-03T03:12:26.025Z,10.04
2018-07-03T03:13:26.215Z,10.01
2018-07-03T03:14:26.430Z,10.07
2018-07-03T03:15:26.615Z,9.89
2018-07-03T03:16:26.815Z,9.79
2018-07-03T03:17:27.018Z,9.81
2018-07-03T03:18:27.202Z,9.83
2018-07-03T03:19:27.395Z,9.79
2018-07-03T03:20:27.578Z,9.81
2018-07-03T03:21:27.772Z,9.76
2018-07-03T03:22:27.981Z,9.71
2018-07-03T03:23:28.140Z,9.75
2018-07-03T03:24:28.340Z,9.68
2018-07-03T03:25:28.530Z,9.68
2018-07-03T03:26:28.716Z,9.74
2018-07-03T03:27:28.919Z,9.75
2018-07-03T03:28:29.122Z,9.74
2018-07-03T03:29:29.333Z,9.86
2018-07-03T03:30:29.536Z,9.81
2018-07-03T03:31:29.743Z,9.76
2018-07-03T03:32:29.960Z,9.81
2018-07-03T03:33:30.167Z,9.86
2018-07-03T03:34:30.351Z,9.89
2018-07-03T03:35:30.546Z,9.93
2018-07-03T03:36:30.751Z,9.94
2018-07-03T03:37:30.945Z,9.97
2018-07-03T03:38:31.145Z,10.09
2018-07-03T03:39:31.345Z,10.01
2018-07-03T03:40:31.545Z,10.08
2018-07-03T03:41:31.730Z,10.08
2018-07-03T03:42:31.924Z,10.07
2018-07-03T03:43:32.127Z,10.08
2018-07-03T03:44:32.320Z,10.08
2018-07-03T03:45:32.516Z,10.07
2018-07-03T03:46:32.700Z,10.18
2018-07-03T03:47:32.905Z,10.20
2018-07-03T03:48:33.108Z,10.15
2018-07-03T03:49:33.299Z,10.20
2018-07-03T03:50:33.504Z,10.23
2018-07-03T03:51:33.712Z,10.22
2018-07-03T03:52:33.926Z,10.20
2018-07-03T03:53:34.133Z,10.20
2018-07-03T03:54:34.318Z,10.09
2018-07-03T03:55:34.506Z,10.12
2018-07-03T03:56:34.692Z,10.14
2018-07-03T03:57:34.886Z,10.11
2018-07-03T03:58:35.071Z,10.04
2018-07-03T03:59:35.281Z,10.20
2018-07-03T04:00:35.486Z,10.17
2018-07-03T04:01:35.681Z,10.20
2018-07-03T04:02:35.889Z,10.23
2018-07-03T04:03:36.080Z,10.25
2018-07-03T04:04:36.278Z,10.23
2018-07-03T04:05:36.480Z,10.33
2018-07-03T04:06:36.665Z,10.47
2018-07-03T04:07:36.850Z,10.45
2018-07-03T04:08:37.038Z,10.67
2018-07-03T04:09:37.224Z,10.81
2018-07-03T04:10:37.438Z,11.00
2018-07-03T04:11:37.640Z,11.02
2018-07-03T04:12:37.824Z,10.92
2018-07-03T04:13:38.012Z,11.07
2018-07-03T04:14:38.195Z,11.35
2018-07-03T04:15:38.395Z,11.27
2018-07-03T04:16:38.582Z,11.80
2018-07-03T04:17:38.795Z,12.67
2018-07-03T04:18:38.994Z,13.46
2018-07-03T04:19:39.193Z,14.33
2018-07-03T04:20:39.420Z,14.84
2018-07-03T04:21:39.625Z,15.20
2018-07-03T04:22:39.820Z,15.72
2018-07-03T04:23:40.007Z,16.05
2018-07-03T04:24:40.212Z,16.56
2018-07-03T04:25:40.421Z,16.89
2018-07-03T04:26:40.639Z,17.21
2018-07-03T04:27:40.833Z,17.58
2018-07-03T04:28:41.035Z,17.87
2018-07-03T04:29:41.246Z,18.14
2018-07-03T04:30:41.445Z,18.07
2018-07-03T04:31:41.650Z,18.15
2018-07-03T04:32:41.832Z,17.90
2018-07-03T04:33:42.026Z,18.39
2018-07-03T04:34:42.223Z,18.30
2018-07-03T04:35:42.434Z,18.63
2018-07-03T04:36:42.626Z,18.87
2018-07-03T04:37:42.826Z,18.80
2018-07-03T04:38:43.021Z,18.20
2018-07-03T04:39:43.205Z,18.52
2018-07-03T04:40:43.414Z,18.78
2018-07-03T04:41:43.616Z,19.31
2018-07-03T04:42:43.826Z,19.44
2018-07-03T04:43:44.037Z,19.69
2018-07-03T04:44:44.237Z,19.37
2018-07-03T04:45:44.435Z,19.26
2018-07-03T04:46:44.662Z,18.85
2018-07-03T04:47:44.871Z,18.54
2018-07-03T04:48:45.055Z,18.84
2018-07-03T04:49:45.260Z,19.00
2018-07-03T04:50:45.451Z,19.11
2018-07-03T04:51:45.660Z,19.37
2018-07-03T04:52:45.853Z,19.62
2018-07-03T04:53:46.037Z,19.73
2018-07-03T04:54:46.245Z,19.69
2018-07-03T04:55:46.429Z,19.69
2018-07-03T04:56:46.644Z,19.78
2018-07-03T04:57:46.847Z,19.36
2018-07-03T04:58:47.059Z,19.46
2018-07-03T04:59:47.255Z,19.56
2018-07-03T05:00:47.499Z,20.36
2018-07-03T05:01:47.698Z,19.76
2018-07-03T05:02:47.892Z,19.66
2018-07-03T05:05:20.072Z,19.98
2018-07-03T05:06:20.256Z,19.46
2018-07-03T05:07:20.444Z,19.00
2018-07-03T05:08:20.649Z,18.36
2018-07-03T05:09:20.846Z,18.12
2018-07-03T05:10:21.062Z,18.69
2018-07-03T05:11:21.275Z,19.47
2018-07-03T05:12:21.483Z,18.70
2018-07-03T05:13:21.696Z,17.44
2018-07-03T05:14:21.904Z,17.71
2018-07-03T05:15:22.097Z,17.26
2018-07-03T05:16:22.312Z,17.06
2018-07-03T05:17:22.536Z,17.59
2018-07-03T05:18:22.709Z,18.10
2018-07-03T05:19:22.906Z,17.72
2018-07-03T05:20:23.119Z,18.65
2018-07-03T05:21:23.314Z,19.02
2018-07-03T05:22:23.509Z,19.95
2018-07-03T05:23:23.708Z,19.80
2018-07-03T05:24:23.924Z,20.64
2018-07-03T05:26:56.062Z,19.26
2018-07-03T05:27:56.250Z,19.13
2018-07-03T05:28:56.439Z,19.08
2018-07-03T05:29:56.654Z,19.92
2018-07-03T05:30:56.865Z,19.83
2018-07-03T05:31:57.123Z,19.83
2018-07-03T05:32:57.209Z,20.74
2018-07-03T05:33:57.406Z,20.36
2018-07-03T05:34:57.668Z,20.18
2018-07-03T05:35:57.758Z,20.51
2018-07-03T05:36:57.951Z,19.96
2018-07-03T05:37:58.145Z,20.76
2018-07-03T05:38:58.336Z,20.57
2018-07-03T05:39:58.536Z,20.82
2018-07-03T05:40:58.742Z,21.28
2018-07-03T05:41:59.144Z,21.92
2018-07-03T05:42:59.215Z,22.00
2018-07-03T05:43:59.397Z,22.37
2018-07-03T05:44:59.593Z,22.79
2018-07-03T05:45:59.803Z,23.07
2018-07-03T05:47:00.025Z,23.63
2018-07-03T05:48:00.207Z,24.20
2018-07-03T05:49:00.423Z,23.80
2018-07-03T05:50:00.623Z,24.32
2018-07-03T05:51:00.819Z,24.45
2018-07-03T05:52:01.032Z,24.80
2018-07-03T05:53:01.241Z,24.47
2018-07-03T05:54:01.439Z,24.16
2018-07-03T05:55:01.636Z,24.46
2018-07-03T05:56:01.844Z,23.78
2018-07-03T05:57:02.046Z,23.94
2018-07-03T05:58:02.238Z,23.76
2018-07-03T05:59:02.434Z,24.06
2018-07-03T06:00:02.638Z,24.50
2018-07-03T06:01:02.834Z,24.80
2018-07-03T06:02:03.039Z,24.52
2018-07-03T06:03:03.245Z,24.53
2018-07-03T06:04:03.452Z,24.73
2018-07-03T06:05:03.672Z,24.67
2018-07-03T06:06:03.875Z,25.10
2018-07-03T06:07:04.070Z,25.32
2018-07-03T06:08:04.282Z,25.13
2018-07-03T06:09:04.553Z,24.60
2018-07-03T06:10:04.686Z,24.73
2018-07-03T06:11:04.907Z,24.43
2018-07-03T06:12:05.116Z,24.69
2018-07-03T06:13:05.329Z,24.52
2018-07-03T06:14:05.548Z,25.13
2018-07-03T06:15:05.759Z,25.70
2018-07-03T06:16:05.970Z,25.83
2018-07-03T06:17:06.401Z,25.54
2018-07-03T06:18:06.388Z,25.83
2018-07-03T06:19:06.597Z,26.07
2018-07-03T06:20:06.814Z,26.20
2018-07-03T06:21:07.233Z,26.51
2018-07-03T06:22:07.230Z,26.87
2018-07-03T06:23:07.444Z,26.76
2018-07-03T06:24:07.663Z,26.28
2018-07-03T06:25:07.851Z,26.32
2018-07-03T06:26:08.044Z,26.18
2018-07-03T06:27:08.253Z,26.21
2018-07-03T06:28:08.463Z,26.29
2018-07-03T06:29:08.731Z,26.05
2018-07-03T06:30:08.912Z,26.57
2018-07-03T06:31:09.101Z,26.29
2018-07-03T06:32:09.306Z,26.17
2018-07-03T06:33:09.512Z,26.09
2018-07-03T06:34:09.713Z,26.67
2018-07-03T06:35:09.918Z,27.03
2018-07-03T06:36:10.127Z,26.77
2018-07-03T06:37:10.345Z,26.15
2018-07-03T06:38:10.554Z,25.98
2018-07-03T06:39:10.774Z,25.85
2018-07-03T06:40:10.970Z,26.01
2018-07-03T06:41:11.181Z,25.91
2018-07-03T06:42:11.407Z,26.57
2018-07-03T06:43:11.614Z,25.40
2018-07-03T06:44:11.829Z,26.47
2018-07-03T06:45:12.045Z,26.85
2018-07-03T06:46:12.262Z,26.69
2018-07-03T06:47:12.478Z,26.99
2018-07-03T06:48:12.683Z,26.09
2018-07-03T06:49:13.067Z,25.58
2018-07-03T06:50:13.101Z,26.37
2018-07-03T06:51:13.326Z,27.10
2018-07-03T06:52:13.536Z,27.24
2018-07-03T06:53:13.729Z,27.36
2018-07-03T06:54:13.940Z,27.55
2018-07-03T06:55:14.134Z,27.85
2018-07-03T06:56:14.352Z,28.02
2018-07-03T06:57:14.549Z,27.60
2018-07-03T06:58:14.760Z,27.67
2018-07-03T06:59:14.981Z,27.70
2018-07-03T07:00:15.169Z,28.09
2018-07-03T07:01:15.368Z,29.28
2018-07-03T07:02:15.579Z,29.11
2018-07-03T07:03:15.794Z,28.34
2018-07-03T07:04:15.994Z,27.74
2018-07-03T07:05:16.196Z,25.46
2018-07-03T07:06:16.396Z,25.45
2018-07-03T07:07:16.619Z,27.04
2018-07-03T07:08:16.836Z,28.51
2018-07-03T07:09:17.150Z,28.07
2018-07-03T07:10:17.239Z,27.74
2018-07-03T07:11:17.454Z,28.27
2018-07-03T07:12:17.648Z,28.66
2018-07-03T07:13:17.863Z,27.44
2018-07-03T07:14:18.082Z,28.46
2018-07-03T07:15:18.278Z,28.55
2018-07-03T07:16:18.557Z,28.88
2018-07-03T07:17:18.726Z,29.36
2018-07-03T07:18:18.944Z,28.31
2018-07-03T07:19:19.165Z,26.73
2018-07-03T07:20:19.421Z,26.94
2018-07-03T07:21:19.627Z,27.81
2018-07-03T07:22:19.845Z,28.52
2018-07-03T07:23:20.063Z,29.70
2018-07-03T07:24:20.257Z,30.42
2018-07-03T07:26:52.409Z,29.41
2018-07-03T07:27:52.604Z,28.41
2018-07-03T07:28:52.834Z,28.15
2018-07-03T07:29:53.129Z,28.18
2018-07-03T07:30:53.201Z,25.79
2018-07-03T07:31:53.407Z,26.43
2018-07-03T07:32:53.637Z,27.84
2018-07-03T07:33:53.836Z,29.57
2018-07-03T07:34:54.040Z,29.34
2018-07-03T07:35:54.299Z,29.73
2018-07-03T07:36:54.437Z,29.52
2018-07-03T07:37:54.634Z,29.51
2018-07-03T07:38:54.842Z,29.98
2018-07-03T07:39:55.038Z,29.06
2018-07-03T07:40:55.349Z,29.36
2018-07-03T07:41:55.429Z,30.55
2018-07-03T07:42:55.635Z,31.58
2018-07-03T07:43:55.847Z,29.65
2018-07-03T07:44:56.074Z,31.07
2018-07-03T07:45:56.299Z,31.78
2018-07-03T07:46:56.512Z,32.11
2018-07-03T07:47:56.792Z,31.12
2018-07-03T07:48:56.939Z,31.65
2018-07-03T07:49:57.161Z,31.73
2018-07-03T07:50:57.513Z,31.66
2018-07-03T07:51:57.694Z,32.30
2018-07-03T07:52:57.779Z,31.58
2018-07-03T07:53:57.987Z,31.12
2018-07-03T07:54:58.233Z,30.43
2018-07-03T07:55:58.448Z,30.70
2018-07-03T07:56:58.675Z,31.95
2018-07-03T07:57:58.876Z,30.15
2018-07-03T07:58:59.082Z,30.15
2018-07-03T07:59:59.299Z,30.02
2018-07-03T08:00:59.516Z,30.31
2018-07-03T08:01:59.731Z,30.76
2018-07-03T08:02:59.942Z,31.46
2018-07-03T08:04:00.156Z,31.92
2018-07-03T08:05:00.378Z,30.61
2018-07-03T08:06:00.591Z,29.92
2018-07-03T08:07:00.811Z,29.87
2018-07-03T08:08:01.005Z,29.53
2018-07-03T08:09:01.219Z,29.87
2018-07-03T08:10:01.428Z,30.53
2018-07-03T08:11:01.669Z,30.89
2018-07-03T08:13:34.084Z,31.20
2018-07-03T08:14:34.025Z,31.85
2018-07-03T08:15:34.257Z,31.43
2018-07-03T08:16:34.482Z,30.61
2018-07-03T08:17:34.681Z,30.94
2018-07-03T08:18:34.889Z,31.09
2018-07-03T08:19:35.114Z,29.86
2018-07-03T08:20:35.333Z,30.60
2018-07-03T08:21:35.705Z,30.70
2018-07-03T08:22:35.752Z,31.19
2018-07-03T08:23:35.961Z,32.15
2018-07-03T08:24:36.175Z,31.85
2018-07-03T08:25:36.388Z,29.86
2018-07-03T08:26:36.647Z,30.47
2018-07-03T08:27:36.803Z,29.60
2018-07-03T08:28:37.004Z,30.20
2018-07-03T08:29:37.228Z,29.73
2018-07-03T08:30:37.439Z,30.38
2018-07-03T08:31:37.645Z,30.67
2018-07-03T08:32:37.855Z,30.51
2018-07-03T08:33:38.065Z,30.39
2018-07-03T08:34:38.272Z,30.79
2018-07-03T08:35:38.520Z,31.75
2018-07-03T08:36:38.721Z,31.06
2018-07-03T08:37:38.919Z,29.76
2018-07-03T08:38:39.136Z,29.06
2018-07-03T08:39:39.340Z,29.05
2018-07-03T08:40:39.568Z,30.01
2018-07-03T08:43:11.815Z,29.33
2018-07-03T08:44:12.005Z,30.22
2018-07-03T08:45:12.236Z,30.76
2018-07-03T08:46:12.435Z,31.20
2018-07-03T08:47:12.659Z,31.92
2018-07-03T08:48:12.878Z,32.11
2018-07-03T08:49:13.081Z,32.30
2018-07-03T08:50:13.316Z,33.21
2018-07-03T08:51:13.564Z,33.35
2018-07-03T08:52:13.787Z,33.35
2018-07-03T08:53:14.006Z,33.16
2018-07-03T08:54:14.223Z,32.92
2018-07-03T08:55:14.445Z,33.06
2018-07-03T08:56:14.656Z,33.11
2018-07-03T08:58:46.520Z,32.18
2018-07-03T08:59:46.695Z,31.38
2018-07-03T09:00:46.932Z,30.73
2018-07-03T09:01:47.103Z,31.10
2018-07-03T09:02:47.303Z,31.43
2018-07-03T09:03:47.516Z,32.28
2018-07-03T09:04:47.738Z,32.89
2018-07-03T09:05:47.956Z,33.22
2018-07-03T09:06:48.178Z,32.44
2018-07-03T09:07:48.401Z,32.41
2018-07-03T09:08:48.598Z,32.59
2018-07-03T09:09:48.826Z,32.67
2018-07-03T09:10:49.027Z,33.03
2018-07-03T09:11:49.227Z,33.68
2018-07-03T09:12:49.436Z,32.77
2018-07-03T09:13:49.651Z,31.58
2018-07-03T09:14:49.865Z,31.88
2018-07-03T09:15:50.067Z,32.55
2018-07-03T09:16:50.293Z,33.09
2018-07-03T09:17:50.547Z,33.11
2018-07-03T09:18:50.741Z,32.69
2018-07-03T09:19:50.966Z,32.52
2018-07-03T09:20:51.151Z,32.69
2018-07-03T09:21:51.372Z,32.62
2018-07-03T09:22:51.588Z,31.66
2018-07-03T09:23:51.788Z,30.42
2018-07-03T09:24:52.011Z,30.34
2018-07-03T09:25:52.217Z,31.01
2018-07-03T09:26:52.440Z,30.53
2018-07-03T09:27:52.639Z,30.42
2018-07-03T09:28:52.847Z,30.57
2018-07-03T09:29:53.067Z,31.09
2018-07-03T09:30:53.271Z,28.56
2018-07-03T09:31:53.487Z,28.51
2018-07-03T09:32:53.715Z,28.78
2018-07-03T09:33:53.927Z,29.97
2018-07-03T09:34:54.146Z,30.88
2018-07-03T09:35:54.370Z,30.22
2018-07-03T09:36:54.579Z,30.15
2018-07-03T09:37:54.781Z,29.09
2018-07-03T09:38:54.994Z,28.76
2018-07-03T09:39:55.216Z,29.15
2018-07-03T09:40:55.413Z,29.65
2018-07-03T09:41:55.609Z,29.33
2018-07-03T09:42:55.833Z,30.26
2018-07-03T09:43:56.053Z,29.52
2018-07-03T09:44:56.260Z,28.40
2018-07-03T09:45:56.465Z,29.11
2018-07-03T09:46:56.686Z,28.77
2018-07-03T09:47:56.895Z,28.92
2018-07-03T09:48:57.135Z,29.53
2018-07-03T09:49:57.312Z,30.13
2018-07-03T09:50:57.511Z,30.89
2018-07-03T09:51:57.750Z,31.14
2018-07-03T09:52:57.954Z,31.93
2018-07-03T09:53:58.168Z,32.00
2018-07-03T09:54:58.397Z,31.88
2018-07-03T09:55:58.697Z,31.96
2018-07-03T09:56:58.830Z,29.87
2018-07-03T09:57:59.026Z,30.86
2018-07-03T09:58:59.235Z,31.73
2018-07-03T09:59:59.435Z,31.80
2018-07-03T10:00:59.692Z,31.96
2018-07-03T10:01:59.788Z,29.63
2018-07-03T10:02:59.989Z,28.41
2018-07-03T10:04:00.223Z,27.96
2018-07-03T10:05:00.441Z,29.16
2018-07-03T10:06:00.626Z,28.36
2018-07-03T10:07:00.848Z,28.86
2018-07-03T10:08:01.074Z,29.74
2018-07-03T10:09:01.300Z,30.11
2018-07-03T10:10:01.517Z,29.43
2018-07-03T10:11:01.734Z,29.86
2018-07-03T10:12:01.940Z,29.30
2018-07-03T10:13:02.188Z,29.46
2018-07-03T10:14:02.374Z,29.86
2018-07-03T10:15:02.607Z,30.51
2018-07-03T10:16:02.847Z,30.82
2018-07-03T10:17:03.048Z,31.32
2018-07-03T10:18:03.279Z,30.11
2018-07-03T10:19:03.527Z,30.55
2018-07-03T10:20:03.716Z,30.84
2018-07-03T10:21:03.923Z,31.63
2018-07-03T10:22:04.150Z,31.89
2018-07-03T10:23:04.349Z,32.07
2018-07-03T10:24:04.547Z,31.41
2018-07-03T10:25:04.751Z,30.92
2018-07-03T10:26:04.950Z,31.19
2018-07-03T10:27:05.177Z,31.10
2018-07-03T10:28:05.402Z,31.17
2018-07-03T10:29:05.616Z,31.47
2018-07-03T10:30:05.834Z,30.65
2018-07-03T10:31:06.054Z,30.35
2018-07-03T10:32:06.275Z,30.42
2018-07-03T10:33:06.475Z,30.34
2018-07-03T10:34:06.700Z,30.53
2018-07-03T10:35:06.910Z,29.92
2018-07-03T10:36:07.126Z,29.53
2018-07-03T10:37:07.343Z,29.18
2018-07-03T10:38:07.556Z,29.11
2018-07-03T10:39:07.790Z,29.21
2018-07-03T10:40:07.975Z,29.31
2018-07-03T10:41:08.237Z,28.95
2018-07-03T10:42:08.493Z,27.78
2018-07-03T10:43:08.630Z,28.24
2018-07-03T10:44:08.836Z,28.31
2018-07-03T10:45:09.034Z,28.80
2018-07-03T10:46:09.233Z,29.08
2018-07-03T10:47:09.426Z,29.18
2018-07-03T10:48:09.635Z,29.15
2018-07-03T10:49:09.827Z,29.06
2018-07-03T10:50:10.032Z,28.68
2018-07-03T10:51:10.250Z,29.14
2018-07-03T10:52:10.444Z,29.05
2018-07-03T10:53:10.652Z,29.15
2018-07-03T10:54:10.911Z,29.45
2018-07-03T10:55:11.075Z,28.34
2018-07-03T10:56:11.293Z,28.02
2018-07-03T10:57:11.501Z,28.33
2018-07-03T10:58:11.693Z,28.59
2018-07-03T10:59:11.885Z,28.85
2018-07-03T11:00:12.087Z,29.14
2018-07-03T11:01:12.299Z,29.16
2018-07-03T11:02:12.515Z,29.28
2018-07-03T11:03:12.737Z,29.42
2018-07-03T11:04:12.956Z,29.34
2018-07-03T11:05:13.168Z,29.45
2018-07-03T11:06:13.392Z,29.39
2018-07-03T11:07:13.649Z,29.30
2018-07-03T11:08:13.824Z,27.97
2018-07-03T11:09:14.026Z,27.92
2018-07-03T11:10:14.236Z,28.09
2018-07-03T11:11:14.450Z,28.44
2018-07-03T11:12:14.647Z,27.69
2018-07-03T11:13:14.870Z,27.57
2018-07-03T11:14:16.026Z,27.70
2018-07-03T11:15:15.243Z,28.06
2018-07-03T11:16:16.046Z,28.12
2018-07-03T11:17:15.644Z,27.96
2018-07-03T11:18:15.928Z,27.84
2018-07-03T11:20:47.964Z,27.92
2018-07-03T11:21:48.150Z,27.29
2018-07-03T11:22:48.342Z,27.60
2018-07-03T11:23:48.566Z,28.09
2018-07-03T11:26:20.683Z,29.11
2018-07-03T11:27:20.865Z,29.41
2018-07-03T11:28:21.105Z,29.41
2018-07-03T11:29:21.347Z,29.57
2018-07-03T11:30:21.564Z,29.58
2018-07-03T11:31:21.794Z,29.53
2018-07-03T11:32:22.007Z,29.43
2018-07-03T11:33:22.195Z,29.15
2018-07-03T11:34:22.394Z,28.39
2018-07-03T11:35:22.591Z,28.70
2018-07-03T11:36:22.806Z,28.67
2018-07-03T11:37:23.010Z,28.43
2018-07-03T11:38:23.204Z,28.34
2018-07-03T11:39:23.427Z,28.51
2018-07-03T11:40:23.633Z,28.80
2018-07-03T11:41:23.828Z,29.23
2018-07-03T11:42:24.032Z,29.51
2018-07-03T11:43:24.254Z,29.85
2018-07-03T11:44:24.469Z,29.43
2018-07-03T11:45:24.863Z,29.14
2018-07-03T11:46:24.910Z,29.24
2018-07-03T11:47:25.103Z,29.08
2018-07-03T11:48:25.309Z,29.00
2018-07-03T11:49:25.530Z,28.61
2018-07-03T11:50:25.742Z,28.95
2018-07-03T11:51:25.935Z,29.11
2018-07-03T11:52:26.135Z,29.30
2018-07-03T11:53:26.334Z,29.61
2018-07-03T11:54:26.547Z,29.39
2018-07-03T11:55:26.772Z,29.57
2018-07-03T11:56:26.965Z,29.55
2018-07-03T11:57:27.185Z,29.52
2018-07-03T11:58:27.504Z,29.09
2018-07-03T11:59:27.595Z,29.00
2018-07-03T12:00:27.818Z,28.86
2018-07-03T12:01:28.095Z,29.14
2018-07-03T12:02:28.225Z,29.31
2018-07-03T12:03:28.423Z,29.67
2018-07-03T12:04:28.639Z,29.83
2018-07-03T12:05:28.862Z,30.10
2018-07-03T12:06:29.057Z,30.13
2018-07-03T12:07:29.277Z,30.04
2018-07-03T12:08:29.464Z,29.86
2018-07-03T12:09:29.728Z,29.64
2018-07-03T12:10:29.806Z,29.74
2018-07-03T12:11:30.014Z,29.95
2018-07-03T12:12:30.225Z,29.68
2018-07-03T12:13:30.439Z,29.34
2018-07-03T12:14:30.635Z,29.21
2018-07-03T12:17:03.047Z,28.46
2018-07-03T12:18:02.975Z,28.55
2018-07-03T12:19:03.223Z,28.76
2018-07-03T12:20:03.430Z,28.71
2018-07-03T12:21:03.623Z,28.80
2018-07-03T12:22:03.828Z,28.54
2018-07-03T12:23:04.045Z,28.76
2018-07-03T12:24:04.271Z,28.93
2018-07-03T12:25:04.473Z,29.21
2018-07-03T12:26:04.693Z,29.53
2018-07-03T12:27:04.880Z,29.30
2018-07-03T12:28:05.076Z,29.12
2018-07-03T12:29:05.311Z,29.26
2018-07-03T12:30:05.500Z,29.23
2018-07-03T12:31:05.693Z,29.23
2018-07-03T12:32:05.906Z,29.11
2018-07-03T12:33:06.101Z,28.54
2018-07-03T12:34:06.290Z,28.27
2018-07-03T12:35:06.502Z,27.92
2018-07-03T12:36:06.701Z,27.97
2018-07-03T12:37:06.912Z,28.18
2018-07-03T12:38:07.136Z,28.71
2018-07-03T12:39:07.348Z,28.81
2018-07-03T12:40:08.463Z,29.15
2018-07-03T12:41:07.762Z,29.33
2018-07-03T12:42:08.953Z,29.18
2018-07-03T12:43:08.158Z,29.19
2018-07-03T12:44:08.457Z,29.46
2018-07-03T12:45:08.603Z,29.57
2018-07-03T12:46:08.795Z,29.33
2018-07-03T12:47:09.000Z,29.18
2018-07-03T12:48:09.201Z,28.92
2018-07-03T12:49:09.520Z,28.81
2018-07-03T12:50:09.596Z,28.56
2018-07-03T12:51:09.811Z,28.58
2018-07-03T12:52:10.018Z,29.00
2018-07-03T12:53:10.218Z,29.04
2018-07-03T12:54:10.437Z,29.09
2018-07-03T12:55:10.634Z,29.34
2018-07-03T12:56:10.827Z,29.23
2018-07-03T12:57:11.023Z,29.11
2018-07-03T12:58:11.227Z,29.33
2018-07-03T12:59:11.453Z,29.55
2018-07-03T13:00:11.652Z,29.63
2018-07-03T13:01:11.867Z,29.52
2018-07-03T13:02:12.087Z,29.30
2018-07-03T13:03:12.295Z,29.30
2018-07-03T13:04:12.516Z,28.70
2018-07-03T13:05:12.736Z,28.85
2018-07-03T13:06:12.965Z,28.70
2018-07-03T13:07:13.164Z,28.71
2018-07-03T13:08:13.425Z,28.95
2018-07-03T13:09:13.619Z,29.23
2018-07-03T13:10:13.815Z,29.61
2018-07-03T13:11:14.026Z,29.82
2018-07-03T13:12:14.242Z,29.53
2018-07-03T13:13:14.433Z,29.36
2018-07-03T13:14:14.642Z,29.51
2018-07-03T13:15:14.861Z,29.43
2018-07-03T13:16:15.066Z,29.45
2018-07-03T13:17:15.270Z,29.31